sensor_id;sensor_type;location;lat;lon;timestamp;pressure;altitude;pressure_sealevel;temperature;humidity
25869;BME280;13688;53.154;18.136;2023-09-19T00:04:00;99985.58;;;19.14;100.00
25869;BME280;13688;53.154;18.136;2023-09-19T00:09:26;99999.03;;;19.01;100.00
25869;BME280;13688;53.154;18.136;2023-09-19T00:14:51;100001.89;;;18.93;100.00
25869;BME280;13688;53.154;18.136;2023-09-19T00:20:16;99995.41;;;18.94;100.00
25869;BME280;13688;53.154;18.136;2023-09-19T00:25:41;100001.00;;;19.07;100.00
25869;BME280;13688;53.154;18.136;2023-09-19T00:31:09;100010.41;;;19.04;100.00
25869;BME280;13688;53.154;18.136;2023-09-19T00:36:39;100012.55;;;19.09;100.00
25869;BME280;13688;53.154;18.136;2023-09-19T00:42:04;100011.25;;;19.05;100.00
25869;BME280;13688;53.154;18.136;2023-09-19T00:47:31;100009.76;;;19.02;100.00
25869;BME280;13688;53.154;18.136;2023-09-19T00:53:02;100012.00;;;18.99;100.00
25869;BME280;13688;53.154;18.136;2023-09-19T00:58:25;100003.19;;;18.97;100.00
25869;BME280;13688;53.154;18.136;2023-09-19T01:03:50;100009.22;;;18.92;100.00
25869;BME280;13688;53.154;18.136;2023-09-19T01:09:14;99998.68;;;18.89;100.00
25869;BME280;13688;53.154;18.136;2023-09-19T01:14:51;99981.28;;;19.05;100.00
25869;BME280;13688;53.154;18.136;2023-09-19T01:32:11;99984.83;;;19.41;100.00
25869;BME280;13688;53.154;18.136;2023-09-19T01:37:36;99955.28;;;19.45;100.00
25869;BME280;13688;53.154;18.136;2023-09-19T01:43:31;99955.87;;;19.40;100.00
25869;BME280;13688;53.154;18.136;2023-09-19T01:54:56;99945.09;;;19.32;100.00
25869;BME280;13688;53.154;18.136;2023-09-19T02:00:18;99956.37;;;19.29;100.00
25869;BME280;13688;53.154;18.136;2023-09-19T02:05:54;99960.73;;;19.24;100.00
25869;BME280;13688;53.154;18.136;2023-09-19T02:11:15;99971.75;;;19.15;100.00
25869;BME280;13688;53.154;18.136;2023-09-19T02:16:39;99970.30;;;18.98;100.00
25869;BME280;13688;53.154;18.136;2023-09-19T02:22:04;99990.90;;;18.86;100.00
25869;BME280;13688;53.154;18.136;2023-09-19T02:27:28;99981.44;;;18.82;100.00
25869;BME280;13688;53.154;18.136;2023-09-19T02:32:53;99980.41;;;18.68;100.00
25869;BME280;13688;53.154;18.136;2023-09-19T02:38:17;100002.08;;;18.47;100.00
25869;BME280;13688;53.154;18.136;2023-09-19T02:43:42;99993.44;;;18.28;100.00
25869;BME280;13688;53.154;18.136;2023-09-19T02:49:05;100017.73;;;18.15;100.00
25869;BME280;13688;53.154;18.136;2023-09-19T02:54:29;100032.45;;;18.06;100.00
25869;BME280;13688;53.154;18.136;2023-09-19T02:59:54;100049.69;;;17.98;100.00
25869;BME280;13688;53.154;18.136;2023-09-19T03:05:21;100060.56;;;17.98;100.00
25869;BME280;13688;53.154;18.136;2023-09-19T03:10:47;100061.78;;;17.96;100.00
25869;BME280;13688;53.154;18.136;2023-09-19T03:16:13;100074.47;;;17.81;100.00
25869;BME280;13688;53.154;18.136;2023-09-19T03:21:37;100091.23;;;17.61;100.00
25869;BME280;13688;53.154;18.136;2023-09-19T03:27:02;100090.44;;;17.53;100.00
25869;BME280;13688;53.154;18.136;2023-09-19T03:32:28;100083.53;;;17.42;100.00
25869;BME280;13688;53.154;18.136;2023-09-19T03:37:53;100094.22;;;17.43;100.00
25869;BME280;13688;53.154;18.136;2023-09-19T03:43:17;100090.38;;;17.38;100.00
25869;BME280;13688;53.154;18.136;2023-09-19T03:48:42;100076.09;;;17.36;100.00
25869;BME280;13688;53.154;18.136;2023-09-19T03:54:05;100088.72;;;17.29;100.00
25869;BME280;13688;53.154;18.136;2023-09-19T03:59:30;100082.44;;;17.28;100.00
25869;BME280;13688;53.154;18.136;2023-09-19T04:04:53;100079.55;;;17.30;100.00
25869;BME280;13688;53.154;18.136;2023-09-19T04:10:18;100083.63;;;17.26;100.00
25869;BME280;13688;53.154;18.136;2023-09-19T04:15:43;100079.03;;;17.26;100.00
25869;BME280;13688;53.154;18.136;2023-09-19T04:21:09;100067.50;;;17.24;100.00
25869;BME280;13688;53.154;18.136;2023-09-19T04:26:33;100065.44;;;17.26;100.00
25869;BME280;13688;53.154;18.136;2023-09-19T04:31:58;100065.95;;;17.30;100.00
25869;BME280;13688;53.154;18.136;2023-09-19T04:37:23;100067.46;;;17.32;100.00
25869;BME280;13688;53.154;18.136;2023-09-19T04:42:59;100062.69;;;17.34;100.00
25869;BME280;13688;53.154;18.136;2023-09-19T04:48:24;100071.87;;;17.33;100.00
25869;BME280;13688;53.154;18.136;2023-09-19T04:53:47;100082.92;;;17.32;100.00
25869;BME280;13688;53.154;18.136;2023-09-19T04:59:13;100085.09;;;17.36;100.00
25869;BME280;13688;53.154;18.136;2023-09-19T05:04:39;100074.95;;;17.30;100.00
25869;BME280;13688;53.154;18.136;2023-09-19T05:10:04;100070.17;;;17.32;100.00
25869;BME280;13688;53.154;18.136;2023-09-19T05:15:32;100062.58;;;17.28;100.00
25869;BME280;13688;53.154;18.136;2023-09-19T05:20:55;100068.97;;;17.35;100.00
25869;BME280;13688;53.154;18.136;2023-09-19T05:26:19;100063.67;;;17.41;100.00
25869;BME280;13688;53.154;18.136;2023-09-19T05:31:45;100071.27;;;17.46;100.00
25869;BME280;13688;53.154;18.136;2023-09-19T05:37:10;100076.70;;;17.46;100.00
25869;BME280;13688;53.154;18.136;2023-09-19T05:42:33;100081.48;;;17.44;100.00
25869;BME280;13688;53.154;18.136;2023-09-19T05:48:06;100084.94;;;17.38;100.00
25869;BME280;13688;53.154;18.136;2023-09-19T05:53:31;100089.38;;;17.31;100.00
25869;BME280;13688;53.154;18.136;2023-09-19T05:58:57;100090.74;;;17.27;100.00
25869;BME280;13688;53.154;18.136;2023-09-19T06:04:21;100091.29;;;17.22;100.00
25869;BME280;13688;53.154;18.136;2023-09-19T06:09:46;100087.07;;;17.20;100.00
25869;BME280;13688;53.154;18.136;2023-09-19T06:15:11;100084.20;;;17.13;100.00
25869;BME280;13688;53.154;18.136;2023-09-19T06:20:35;100100.69;;;17.11;100.00
25869;BME280;13688;53.154;18.136;2023-09-19T06:26:00;100099.51;;;17.06;100.00
25869;BME280;13688;53.154;18.136;2023-09-19T06:31:29;100104.45;;;17.02;100.00
25869;BME280;13688;53.154;18.136;2023-09-19T06:36:52;100118.03;;;17.02;100.00
25869;BME280;13688;53.154;18.136;2023-09-19T06:42:26;100123.62;;;17.09;100.00
25869;BME280;13688;53.154;18.136;2023-09-19T06:47:50;100133.84;;;16.99;100.00
25869;BME280;13688;53.154;18.136;2023-09-19T06:53:15;100132.83;;;17.00;100.00
25869;BME280;13688;53.154;18.136;2023-09-19T06:58:40;100130.41;;;17.05;100.00
25869;BME280;13688;53.154;18.136;2023-09-19T07:04:03;100144.84;;;17.05;100.00
25869;BME280;13688;53.154;18.136;2023-09-19T07:09:26;100157.39;;;17.06;100.00
25869;BME280;13688;53.154;18.136;2023-09-19T07:14:49;100142.58;;;17.17;100.00
25869;BME280;13688;53.154;18.136;2023-09-19T07:20:14;100153.96;;;17.21;100.00
25869;BME280;13688;53.154;18.136;2023-09-19T07:25:39;100161.57;;;17.25;100.00
25869;BME280;13688;53.154;18.136;2023-09-19T07:31:02;100160.33;;;17.36;100.00
25869;BME280;13688;53.154;18.136;2023-09-19T07:36:28;100157.25;;;17.47;100.00
25869;BME280;13688;53.154;18.136;2023-09-19T07:41:52;100150.72;;;17.56;100.00
25869;BME280;13688;53.154;18.136;2023-09-19T07:47:16;100160.19;;;17.68;100.00
25869;BME280;13688;53.154;18.136;2023-09-19T07:52:40;100163.09;;;17.67;100.00
25869;BME280;13688;53.154;18.136;2023-09-19T07:58:04;100161.73;;;17.71;100.00
25869;BME280;13688;53.154;18.136;2023-09-19T08:03:27;100169.37;;;17.67;100.00
25869;BME280;13688;53.154;18.136;2023-09-19T08:08:52;100169.27;;;17.53;100.00
25869;BME280;13688;53.154;18.136;2023-09-19T08:14:16;100178.99;;;17.47;100.00
25869;BME280;13688;53.154;18.136;2023-09-19T08:19:41;100188.33;;;17.44;100.00
25869;BME280;13688;53.154;18.136;2023-09-19T08:25:03;100182.67;;;17.54;100.00
25869;BME280;13688;53.154;18.136;2023-09-19T08:30:37;100190.47;;;17.96;100.00
25869;BME280;13688;53.154;18.136;2023-09-19T08:36:02;100194.88;;;17.97;100.00
25869;BME280;13688;53.154;18.136;2023-09-19T08:41:25;100192.59;;;18.09;100.00
25869;BME280;13688;53.154;18.136;2023-09-19T08:46:49;100201.83;;;18.00;100.00
25869;BME280;13688;53.154;18.136;2023-09-19T08:52:22;100219.37;;;17.97;100.00
25869;BME280;13688;53.154;18.136;2023-09-19T08:57:49;100217.26;;;18.08;100.00
25869;BME280;13688;53.154;18.136;2023-09-19T09:03:26;100204.31;;;18.33;100.00
25869;BME280;13688;53.154;18.136;2023-09-19T09:14:25;100194.55;;;18.61;100.00
25869;BME280;13688;53.154;18.136;2023-09-19T09:19:48;100196.31;;;18.77;100.00
25869;BME280;13688;53.154;18.136;2023-09-19T09:25:12;100188.72;;;18.87;100.00
25869;BME280;13688;53.154;18.136;2023-09-19T09:30:41;100187.30;;;18.91;100.00
25869;BME280;13688;53.154;18.136;2023-09-19T09:36:05;100196.89;;;18.87;100.00
25869;BME280;13688;53.154;18.136;2023-09-19T09:41:35;100191.28;;;19.03;100.00
25869;BME280;13688;53.154;18.136;2023-09-19T09:46:55;100190.33;;;19.26;100.00
25869;BME280;13688;53.154;18.136;2023-09-19T09:58:56;100174.34;;;19.52;100.00
25869;BME280;13688;53.154;18.136;2023-09-19T10:04:29;100171.48;;;19.75;100.00
25869;BME280;13688;53.154;18.136;2023-09-19T10:09:53;100156.80;;;19.76;100.00
25869;BME280;13688;53.154;18.136;2023-09-19T10:15:31;100169.78;;;20.10;100.00
25869;BME280;13688;53.154;18.136;2023-09-19T10:21:08;100178.88;;;20.39;100.00
25869;BME280;13688;53.154;18.136;2023-09-19T10:26:34;100172.03;;;20.07;100.00
25869;BME280;13688;53.154;18.136;2023-09-19T10:31:58;100194.99;;;20.12;100.00
25869;BME280;13688;53.154;18.136;2023-09-19T10:37:24;100201.36;;;19.98;100.00
25869;BME280;13688;53.154;18.136;2023-09-19T10:42:48;100192.05;;;19.92;100.00
25869;BME280;13688;53.154;18.136;2023-09-19T10:48:16;100226.48;;;19.93;100.00
25869;BME280;13688;53.154;18.136;2023-09-19T10:59:17;100205.59;;;20.65;100.00
25869;BME280;13688;53.154;18.136;2023-09-19T11:04:42;100205.69;;;20.50;100.00
25869;BME280;13688;53.154;18.136;2023-09-19T11:10:05;100193.45;;;20.46;100.00
25869;BME280;13688;53.154;18.136;2023-09-19T11:27:09;100166.06;;;20.89;100.00
25869;BME280;13688;53.154;18.136;2023-09-19T11:49:50;100187.69;;;22.00;100.00
25869;BME280;13688;53.154;18.136;2023-09-19T11:55:15;100204.09;;;21.46;100.00
25869;BME280;13688;53.154;18.136;2023-09-19T12:00:41;100223.17;;;21.05;100.00
25869;BME280;13688;53.154;18.136;2023-09-19T12:06:12;100217.29;;;20.80;100.00
25869;BME280;13688;53.154;18.136;2023-09-19T12:11:40;100225.42;;;20.73;100.00
25869;BME280;13688;53.154;18.136;2023-09-19T12:17:01;100219.39;;;21.06;100.00
25869;BME280;13688;53.154;18.136;2023-09-19T12:22:24;100225.95;;;21.87;100.00
25869;BME280;13688;53.154;18.136;2023-09-19T12:27:54;100246.59;;;21.90;100.00
25869;BME280;13688;53.154;18.136;2023-09-19T12:33:23;100241.08;;;22.38;100.00
25869;BME280;13688;53.154;18.136;2023-09-19T12:38:48;100241.74;;;22.53;100.00
25869;BME280;13688;53.154;18.136;2023-09-19T12:44:15;100259.59;;;21.75;100.00
25869;BME280;13688;53.154;18.136;2023-09-19T12:55:33;100264.55;;;21.58;100.00
25869;BME280;13688;53.154;18.136;2023-09-19T13:00:59;100256.85;;;20.63;100.00
25869;BME280;13688;53.154;18.136;2023-09-19T13:06:46;100264.91;;;21.48;100.00
25869;BME280;13688;53.154;18.136;2023-09-19T13:17:54;100268.20;;;22.13;100.00
25869;BME280;13688;53.154;18.136;2023-09-19T13:23:32;100277.48;;;21.77;94.89
25869;BME280;13688;53.154;18.136;2023-09-19T13:28:55;100274.23;;;21.60;100.00
25869;BME280;13688;53.154;18.136;2023-09-19T13:34:18;100268.75;;;22.69;90.56
25869;BME280;13688;53.154;18.136;2023-09-19T13:39:41;100283.92;;;22.59;79.09
25869;BME280;13688;53.154;18.136;2023-09-19T13:45:04;100273.38;;;22.62;80.43
25869;BME280;13688;53.154;18.136;2023-09-19T13:50:28;100282.66;;;22.74;79.25
25869;BME280;13688;53.154;18.136;2023-09-19T13:55:51;100270.84;;;22.67;77.93
25869;BME280;13688;53.154;18.136;2023-09-19T14:01:15;100293.68;;;23.27;73.78
25869;BME280;13688;53.154;18.136;2023-09-19T14:06:47;100285.25;;;22.89;64.90
25869;BME280;13688;53.154;18.136;2023-09-19T14:12:11;100278.44;;;22.59;64.61
25869;BME280;13688;53.154;18.136;2023-09-19T14:17:37;100289.99;;;22.41;66.10
25869;BME280;13688;53.154;18.136;2023-09-19T14:23:00;100275.96;;;22.09;72.97
25869;BME280;13688;53.154;18.136;2023-09-19T14:28:23;100279.56;;;21.34;78.93
25869;BME280;13688;53.154;18.136;2023-09-19T14:33:52;100281.01;;;21.64;78.60
25869;BME280;13688;53.154;18.136;2023-09-19T14:39:11;100287.30;;;22.74;74.60
25869;BME280;13688;53.154;18.136;2023-09-19T14:44:38;100300.18;;;22.80;67.89
25869;BME280;13688;53.154;18.136;2023-09-19T14:50:01;100298.02;;;22.55;67.32
25869;BME280;13688;53.154;18.136;2023-09-19T14:55:25;100294.17;;;21.89;73.10
25869;BME280;13688;53.154;18.136;2023-09-19T15:00:49;100290.20;;;21.91;79.00
25869;BME280;13688;53.154;18.136;2023-09-19T15:06:22;100294.86;;;21.28;90.53
25869;BME280;13688;53.154;18.136;2023-09-19T15:11:45;100318.44;;;20.65;100.00
25869;BME280;13688;53.154;18.136;2023-09-19T15:17:10;100311.36;;;20.49;100.00
25869;BME280;13688;53.154;18.136;2023-09-19T15:22:34;100314.79;;;20.22;100.00
25869;BME280;13688;53.154;18.136;2023-09-19T15:27:58;100321.74;;;20.24;100.00
25869;BME280;13688;53.154;18.136;2023-09-19T15:33:20;100325.72;;;20.07;100.00
25869;BME280;13688;53.154;18.136;2023-09-19T15:39:03;100340.14;;;19.86;100.00
25869;BME280;13688;53.154;18.136;2023-09-19T15:44:26;100332.15;;;19.85;100.00
25869;BME280;13688;53.154;18.136;2023-09-19T15:49:49;100333.28;;;19.76;100.00
25869;BME280;13688;53.154;18.136;2023-09-19T15:55:13;100333.56;;;19.66;100.00
25869;BME280;13688;53.154;18.136;2023-09-19T16:00:38;100345.64;;;19.49;100.00
25869;BME280;13688;53.154;18.136;2023-09-19T16:06:00;100349.13;;;19.42;100.00
25869;BME280;13688;53.154;18.136;2023-09-19T16:11:27;100351.09;;;19.34;100.00
25869;BME280;13688;53.154;18.136;2023-09-19T16:16:51;100348.69;;;19.16;100.00
25869;BME280;13688;53.154;18.136;2023-09-19T16:22:14;100350.27;;;19.10;100.00
25869;BME280;13688;53.154;18.136;2023-09-19T16:27:36;100346.34;;;18.90;100.00
25869;BME280;13688;53.154;18.136;2023-09-19T16:32:59;100348.05;;;18.68;100.00
25869;BME280;13688;53.154;18.136;2023-09-19T16:38:22;100351.02;;;18.50;100.00
25869;BME280;13688;53.154;18.136;2023-09-19T16:43:46;100354.81;;;18.10;100.00
25869;BME280;13688;53.154;18.136;2023-09-19T16:49:09;100354.58;;;17.81;100.00
25869;BME280;13688;53.154;18.136;2023-09-19T16:54:31;100359.91;;;17.50;100.00
25869;BME280;13688;53.154;18.136;2023-09-19T16:59:54;100364.19;;;17.28;100.00
25869;BME280;13688;53.154;18.136;2023-09-19T17:05:17;100376.91;;;16.95;100.00
25869;BME280;13688;53.154;18.136;2023-09-19T17:10:41;100378.42;;;16.73;100.00
25869;BME280;13688;53.154;18.136;2023-09-19T17:16:09;100380.22;;;16.56;100.00
25869;BME280;13688;53.154;18.136;2023-09-19T17:21:34;100383.59;;;16.42;100.00
25869;BME280;13688;53.154;18.136;2023-09-19T17:26:56;100390.64;;;16.26;100.00
25869;BME280;13688;53.154;18.136;2023-09-19T17:32:20;100393.31;;;16.18;100.00
25869;BME280;13688;53.154;18.136;2023-09-19T17:37:43;100401.75;;;16.07;100.00
25869;BME280;13688;53.154;18.136;2023-09-19T17:43:06;100397.07;;;15.83;100.00
25869;BME280;13688;53.154;18.136;2023-09-19T17:48:29;100412.12;;;15.60;100.00
25869;BME280;13688;53.154;18.136;2023-09-19T17:53:54;100423.64;;;15.36;100.00
25869;BME280;13688;53.154;18.136;2023-09-19T17:59:18;100429.16;;;15.26;100.00
25869;BME280;13688;53.154;18.136;2023-09-19T18:04:41;100435.95;;;15.30;100.00
25869;BME280;13688;53.154;18.136;2023-09-19T18:10:06;100439.43;;;15.23;100.00
25869;BME280;13688;53.154;18.136;2023-09-19T18:15:29;100440.20;;;15.15;100.00
25869;BME280;13688;53.154;18.136;2023-09-19T18:20:52;100438.66;;;14.95;100.00
25869;BME280;13688;53.154;18.136;2023-09-19T18:26:16;100449.56;;;14.85;100.00
25869;BME280;13688;53.154;18.136;2023-09-19T18:31:38;100453.66;;;14.71;100.00
25869;BME280;13688;53.154;18.136;2023-09-19T18:37:01;100459.88;;;14.54;100.00
25869;BME280;13688;53.154;18.136;2023-09-19T18:42:24;100466.47;;;14.42;100.00
25869;BME280;13688;53.154;18.136;2023-09-19T18:47:47;100474.21;;;14.27;100.00
25869;BME280;13688;53.154;18.136;2023-09-19T18:53:11;100484.83;;;14.11;100.00
25869;BME280;13688;53.154;18.136;2023-09-19T18:58:36;100486.95;;;14.07;100.00
25869;BME280;13688;53.154;18.136;2023-09-19T19:04:01;100481.31;;;14.00;100.00
25869;BME280;13688;53.154;18.136;2023-09-19T19:09:24;100483.77;;;13.84;100.00
25869;BME280;13688;53.154;18.136;2023-09-19T19:14:47;100488.05;;;13.67;100.00
25869;BME280;13688;53.154;18.136;2023-09-19T19:20:11;100489.35;;;13.63;100.00
25869;BME280;13688;53.154;18.136;2023-09-19T19:25:36;100493.33;;;13.59;100.00
25869;BME280;13688;53.154;18.136;2023-09-19T19:31:07;100492.22;;;13.52;100.00
25869;BME280;13688;53.154;18.136;2023-09-19T19:36:32;100491.93;;;13.45;100.00
25869;BME280;13688;53.154;18.136;2023-09-19T19:41:57;100490.38;;;13.33;100.00
25869;BME280;13688;53.154;18.136;2023-09-19T19:47:19;100490.79;;;13.29;100.00
25869;BME280;13688;53.154;18.136;2023-09-19T19:52:42;100487.64;;;13.14;100.00
25869;BME280;13688;53.154;18.136;2023-09-19T19:58:11;100493.74;;;13.06;100.00
25869;BME280;13688;53.154;18.136;2023-09-19T20:03:36;100498.53;;;12.93;100.00
25869;BME280;13688;53.154;18.136;2023-09-19T20:09:01;100504.20;;;12.80;100.00
25869;BME280;13688;53.154;18.136;2023-09-19T20:14:24;100505.03;;;12.71;100.00
25869;BME280;13688;53.154;18.136;2023-09-19T20:19:49;100503.73;;;12.56;100.00
25869;BME280;13688;53.154;18.136;2023-09-19T20:25:12;100497.91;;;12.60;100.00
25869;BME280;13688;53.154;18.136;2023-09-19T20:30:37;100504.44;;;12.58;100.00
25869;BME280;13688;53.154;18.136;2023-09-19T20:36:02;100512.67;;;12.56;100.00
25869;BME280;13688;53.154;18.136;2023-09-19T20:41:25;100506.39;;;12.46;100.00
25869;BME280;13688;53.154;18.136;2023-09-19T20:46:48;100508.95;;;12.48;100.00
25869;BME280;13688;53.154;18.136;2023-09-19T20:52:13;100505.72;;;12.64;100.00
25869;BME280;13688;53.154;18.136;2023-09-19T20:57:35;100501.63;;;12.69;100.00
25869;BME280;13688;53.154;18.136;2023-09-19T21:02:59;100504.27;;;12.50;100.00
25869;BME280;13688;53.154;18.136;2023-09-19T21:08:24;100509.05;;;12.37;100.00
25869;BME280;13688;53.154;18.136;2023-09-19T21:13:48;100514.22;;;12.19;100.00
25869;BME280;13688;53.154;18.136;2023-09-19T21:19:12;100512.72;;;12.05;100.00
25869;BME280;13688;53.154;18.136;2023-09-19T21:24:34;100525.28;;;11.95;100.00
25869;BME280;13688;53.154;18.136;2023-09-19T21:29:57;100524.38;;;11.85;100.00
25869;BME280;13688;53.154;18.136;2023-09-19T21:35:21;100532.11;;;11.78;100.00
25869;BME280;13688;53.154;18.136;2023-09-19T21:40:43;100537.53;;;11.67;100.00
25869;BME280;13688;53.154;18.136;2023-09-19T21:46:06;100539.65;;;11.63;100.00
25869;BME280;13688;53.154;18.136;2023-09-19T21:51:29;100548.00;;;11.60;100.00
25869;BME280;13688;53.154;18.136;2023-09-19T21:56:51;100544.90;;;11.65;100.00
25869;BME280;13688;53.154;18.136;2023-09-19T22:02:14;100549.55;;;11.42;100.00
25869;BME280;13688;53.154;18.136;2023-09-19T22:07:38;100547.12;;;11.39;100.00
25869;BME280;13688;53.154;18.136;2023-09-19T22:13:01;100546.51;;;11.35;100.00
25869;BME280;13688;53.154;18.136;2023-09-19T22:18:29;100541.52;;;11.31;100.00
25869;BME280;13688;53.154;18.136;2023-09-19T22:23:50;100537.99;;;11.19;100.00
25869;BME280;13688;53.154;18.136;2023-09-19T22:29:13;100542.33;;;11.10;100.00
25869;BME280;13688;53.154;18.136;2023-09-19T22:34:37;100543.67;;;11.05;100.00
25869;BME280;13688;53.154;18.136;2023-09-19T22:40:02;100544.44;;;10.96;100.00
25869;BME280;13688;53.154;18.136;2023-09-19T22:45:27;100543.35;;;10.87;100.00
25869;BME280;13688;53.154;18.136;2023-09-19T22:50:50;100546.32;;;10.73;100.00
25869;BME280;13688;53.154;18.136;2023-09-19T22:56:20;100553.05;;;10.56;100.00
25869;BME280;13688;53.154;18.136;2023-09-19T23:01:42;100559.16;;;10.58;100.00
25869;BME280;13688;53.154;18.136;2023-09-19T23:07:07;100560.64;;;10.62;100.00
25869;BME280;13688;53.154;18.136;2023-09-19T23:12:30;100560.62;;;10.51;100.00
25869;BME280;13688;53.154;18.136;2023-09-19T23:17:53;100563.56;;;10.48;100.00
25869;BME280;13688;53.154;18.136;2023-09-19T23:23:17;100576.15;;;10.47;100.00
25869;BME280;13688;53.154;18.136;2023-09-19T23:28:41;100566.37;;;10.46;100.00
25869;BME280;13688;53.154;18.136;2023-09-19T23:34:03;100564.54;;;10.47;100.00
25869;BME280;13688;53.154;18.136;2023-09-19T23:39:26;100561.59;;;10.50;100.00
25869;BME280;13688;53.154;18.136;2023-09-19T23:44:50;100563.81;;;10.45;100.00
25869;BME280;13688;53.154;18.136;2023-09-19T23:50:13;100559.77;;;10.50;100.00
25869;BME280;13688;53.154;18.136;2023-09-19T23:55:38;100558.69;;;10.53;100.00
